createdAt,value
2017-12-20T00:00:05.889Z,7.31
2017-12-20T00:00:46.470Z,7.32
2017-12-20T00:01:27.016Z,7.28
2017-12-20T00:02:07.519Z,7.24
2017-12-20T00:02:48.111Z,7.31
2017-12-20T00:03:28.626Z,7.27
2017-12-20T00:04:09.159Z,7.15
2017-12-20T00:04:49.722Z,7.23
2017-12-20T00:05:30.260Z,7.13
2017-12-20T00:06:10.819Z,7.24
2017-12-20T00:06:51.330Z,7.09
2017-12-20T00:07:31.881Z,7.07
2017-12-20T00:08:12.407Z,7.2
2017-12-20T00:08:52.958Z,7.07
2017-12-20T00:09:33.479Z,7.05
2017-12-20T00:10:14.064Z,7.12
2017-12-20T00:10:54.638Z,7.2
2017-12-20T00:11:35.197Z,7.12
2017-12-20T00:12:15.753Z,6.98
2017-12-20T00:12:56.279Z,6.99
2017-12-20T00:13:36.844Z,6.98
2017-12-20T00:14:17.492Z,7.02
2017-12-20T00:14:57.984Z,7.1
2017-12-20T00:15:38.555Z,7.07
2017-12-20T00:16:19.125Z,7.13
2017-12-20T00:16:59.629Z,7.17
2017-12-20T00:17:40.200Z,7.24
2017-12-20T00:18:20.755Z,7.25
2017-12-20T00:19:01.302Z,7.3
2017-12-20T00:19:41.827Z,7.32
2017-12-20T00:20:22.360Z,7.3
2017-12-20T00:21:02.895Z,7.23
2017-12-20T00:21:43.455Z,7.24
2017-12-20T00:22:24.003Z,7.23
2017-12-20T00:23:04.552Z,7.2
2017-12-20T00:23:45.092Z,7.25
2017-12-20T00:24:25.649Z,7.2
2017-12-20T00:25:06.192Z,7.17
2017-12-20T00:25:46.752Z,7.16
2017-12-20T00:26:27.320Z,7.24
2017-12-20T00:27:07.803Z,7.17
2017-12-20T00:27:48.383Z,7.25
2017-12-20T00:28:28.862Z,7.24
2017-12-20T00:29:09.450Z,7.34
2017-12-20T00:29:49.997Z,7.28
2017-12-20T00:30:30.558Z,7.13
2017-12-20T00:31:11.110Z,7.17
2017-12-20T00:31:51.648Z,7.27
2017-12-20T00:32:32.168Z,7.24
2017-12-20T00:33:12.738Z,7.12
2017-12-20T00:33:53.210Z,7.12
2017-12-20T00:34:33.755Z,7.16
2017-12-20T00:35:14.346Z,7.15
2017-12-20T00:35:54.890Z,7.2
2017-12-20T00:36:35.385Z,7.17
2017-12-20T00:37:16.049Z,7.31
2017-12-20T00:37:56.605Z,7.21
2017-12-20T00:38:37.104Z,7.17
2017-12-20T00:39:17.641Z,7.16
2017-12-20T00:39:58.287Z,7.15
2017-12-20T00:40:38.924Z,7.06
2017-12-20T00:41:19.475Z,7.07
2017-12-20T00:41:59.986Z,7.15
2017-12-20T00:42:40.545Z,7.2
2017-12-20T00:43:21.029Z,6.98
2017-12-20T00:44:01.592Z,7.09
2017-12-20T00:44:42.147Z,7.16
2017-12-20T00:45:22.689Z,7.15
2017-12-20T00:46:03.206Z,7.15
2017-12-20T00:46:43.726Z,7.2
2017-12-20T00:47:24.287Z,7.1
2017-12-20T00:48:04.849Z,7.02
2017-12-20T00:48:45.319Z,7.1
2017-12-20T00:49:25.836Z,7.06
2017-12-20T00:50:06.392Z,7.16
2017-12-20T00:50:46.946Z,7.23
2017-12-20T00:51:27.467Z,7.24
2017-12-20T00:52:08.011Z,7.16
2017-12-20T00:52:48.591Z,7.17
2017-12-20T00:53:29.252Z,7.16
2017-12-20T00:54:10.000Z,7.1
2017-12-20T00:54:50.782Z,7.2
2017-12-20T00:55:31.390Z,7.05
2017-12-20T00:56:11.951Z,7.09
2017-12-20T00:56:52.424Z,7.06
2017-12-20T00:57:32.956Z,7.17
2017-12-20T00:58:13.483Z,7.1
2017-12-20T00:58:54.039Z,7.05
2017-12-20T00:59:34.522Z,7.13
2017-12-20T01:00:15.061Z,7.16
2017-12-20T01:00:55.589Z,7.16
2017-12-20T01:01:36.168Z,7.2
2017-12-20T01:02:16.687Z,7.15
2017-12-20T01:02:57.222Z,7.12
2017-12-20T01:03:37.748Z,7.1
2017-12-20T01:05:32.293Z,7.07
2017-12-20T01:06:12.825Z,7.16
2017-12-20T01:06:53.368Z,7.2
2017-12-20T01:07:33.851Z,7.17
2017-12-20T01:08:14.419Z,7.12
2017-12-20T01:08:54.956Z,7.23
2017-12-20T01:09:35.504Z,7.17
2017-12-20T01:10:15.999Z,7.21
2017-12-20T01:10:56.560Z,7.15
2017-12-20T01:11:37.071Z,7.09
2017-12-20T01:12:17.611Z,7.12
2017-12-20T01:12:58.159Z,7.05
2017-12-20T01:13:38.780Z,6.92
2017-12-20T01:14:19.338Z,6.97
2017-12-20T01:14:59.846Z,7.09
2017-12-20T01:15:40.372Z,7.1
2017-12-20T01:16:20.887Z,7.1
2017-12-20T01:17:01.465Z,7.15
2017-12-20T01:17:41.993Z,6.97
2017-12-20T01:18:22.542Z,7.13
2017-12-20T01:19:03.123Z,7.05
2017-12-20T01:19:43.679Z,7.09
2017-12-20T01:20:24.229Z,7.03
2017-12-20T01:21:04.748Z,7.16
2017-12-20T01:21:45.291Z,7.16
2017-12-20T01:22:25.856Z,7.21
2017-12-20T01:23:06.397Z,7.12
2017-12-20T01:23:46.957Z,7.13
2017-12-20T01:24:27.532Z,7.13
2017-12-20T01:25:08.027Z,7.15
2017-12-20T01:25:48.753Z,7.15
2017-12-20T01:26:29.341Z,7.24
2017-12-20T01:27:09.866Z,7.28
2017-12-20T01:27:50.472Z,7.28
2017-12-20T01:28:30.968Z,7.27
2017-12-20T01:29:11.528Z,7.31
2017-12-20T01:29:52.102Z,7.27
2017-12-20T01:30:32.697Z,7.24
2017-12-20T01:31:13.233Z,7.24
2017-12-20T01:31:53.749Z,7.27
2017-12-20T01:32:34.284Z,7.24
2017-12-20T01:33:14.871Z,7.25
2017-12-20T01:33:55.415Z,7.16
2017-12-20T01:34:35.968Z,7.06
2017-12-20T01:35:16.542Z,7.21
2017-12-20T01:35:57.098Z,7.1
2017-12-20T01:36:37.601Z,7.16
2017-12-20T01:37:18.157Z,7.17
2017-12-20T01:37:58.704Z,7.24
2017-12-20T01:38:39.241Z,7.24
2017-12-20T01:39:19.789Z,7.03
2017-12-20T01:40:00.363Z,6.99
2017-12-20T01:40:40.924Z,7.12
2017-12-20T01:41:21.455Z,7.16
2017-12-20T01:42:02.035Z,7.16
2017-12-20T01:42:42.576Z,7.15
2017-12-20T01:43:23.133Z,7.06
2017-12-20T01:44:03.671Z,7.09
2017-12-20T01:44:44.217Z,7.09
2017-12-20T01:45:24.794Z,7.16
2017-12-20T01:46:05.340Z,7.13
2017-12-20T01:46:45.849Z,7.09
2017-12-20T01:47:26.413Z,7.12
2017-12-20T01:48:06.952Z,7.06
2017-12-20T01:48:47.505Z,7.07
2017-12-20T01:49:28.068Z,7.09
2017-12-20T01:50:08.615Z,7.09
2017-12-20T01:50:49.170Z,7.1
2017-12-20T01:51:29.740Z,7.21
2017-12-20T01:52:10.354Z,7.21
2017-12-20T01:52:50.882Z,7.24
2017-12-20T01:53:31.434Z,7.21
2017-12-20T01:54:11.940Z,7.16
2017-12-20T01:54:52.535Z,7.17
2017-12-20T01:55:33.079Z,7.16
2017-12-20T01:56:13.578Z,7.17
2017-12-20T01:56:54.141Z,7.09
2017-12-20T01:57:34.652Z,7.13
2017-12-20T01:58:15.161Z,7.3
2017-12-20T01:58:55.702Z,7.17
2017-12-20T01:59:36.243Z,7.13
2017-12-20T02:00:16.761Z,7.15
2017-12-20T02:00:57.334Z,7.21
2017-12-20T02:01:37.883Z,7.23
2017-12-20T02:02:18.443Z,7.17
2017-12-20T02:02:58.978Z,7.2
2017-12-20T02:03:39.494Z,7.17
2017-12-20T02:04:20.096Z,7.21
2017-12-20T02:05:00.623Z,7.32
2017-12-20T02:05:41.159Z,7.21
2017-12-20T02:06:21.697Z,7.2
2017-12-20T02:07:02.255Z,7.05
2017-12-20T02:07:42.802Z,7.12
2017-12-20T02:08:23.337Z,7.1
2017-12-20T02:09:03.912Z,7.1
2017-12-20T02:09:44.466Z,7.1
2017-12-20T02:10:25.077Z,7.09
2017-12-20T02:11:05.572Z,7.07
2017-12-20T02:11:46.071Z,7.17
2017-12-20T02:12:26.646Z,7.09
2017-12-20T02:13:07.160Z,6.91
2017-12-20T02:13:47.717Z,6.98
2017-12-20T02:14:28.254Z,7.02
2017-12-20T02:15:08.796Z,7.09
2017-12-20T02:15:49.368Z,7.12
2017-12-20T02:16:29.952Z,7.09
2017-12-20T02:17:10.499Z,7.21
2017-12-20T02:17:51.047Z,7.12
2017-12-20T02:18:31.563Z,7.15
2017-12-20T02:19:12.076Z,7.17
2017-12-20T02:19:52.645Z,7.16
2017-12-20T02:20:33.199Z,7.1
2017-12-20T02:21:13.750Z,7.12
2017-12-20T02:21:54.304Z,7.25
2017-12-20T02:22:34.829Z,7.24
2017-12-20T02:23:15.330Z,7.17
2017-12-20T02:23:55.902Z,7.21
2017-12-20T02:24:36.433Z,7.27
2017-12-20T02:25:16.980Z,7.32
2017-12-20T02:25:57.508Z,7.27
2017-12-20T02:26:38.068Z,7.23
2017-12-20T02:27:18.597Z,7.12
2017-12-20T02:27:59.162Z,7.21
2017-12-20T02:28:39.687Z,7.12
2017-12-20T02:29:20.219Z,7.1
2017-12-20T02:30:00.811Z,7.16
2017-12-20T02:30:41.323Z,7.17
2017-12-20T02:31:21.963Z,7.2
2017-12-20T02:32:02.481Z,7.17
2017-12-20T02:32:43.096Z,7.15
2017-12-20T02:33:23.601Z,7.07
2017-12-20T02:34:04.135Z,7.03
2017-12-20T02:34:44.717Z,7.07
2017-12-20T02:35:25.243Z,7.06
2017-12-20T02:36:05.815Z,7.06
2017-12-20T02:36:46.381Z,7.17
2017-12-20T02:37:26.911Z,7.09
2017-12-20T02:38:07.466Z,6.94
2017-12-20T02:38:48.045Z,7.09
2017-12-20T02:39:28.546Z,7.1
2017-12-20T02:40:09.157Z,7.24
2017-12-20T02:40:49.696Z,7.21
2017-12-20T02:41:30.243Z,7.27
2017-12-20T02:42:10.847Z,7.32
2017-12-20T02:42:51.357Z,7.35
2017-12-20T02:43:31.932Z,7.34
2017-12-20T02:44:12.436Z,7.42
2017-12-20T02:44:52.956Z,7.35
2017-12-20T02:45:33.570Z,7.32
2017-12-20T02:46:14.086Z,7.28
2017-12-20T02:46:54.652Z,7.39
2017-12-20T02:47:35.143Z,7.37
2017-12-20T02:48:15.676Z,7.42
2017-12-20T02:48:56.259Z,7.39
2017-12-20T02:49:36.784Z,7.24
2017-12-20T02:50:17.426Z,7.28
2017-12-20T02:50:57.945Z,7.23
2017-12-20T02:51:38.456Z,7.32
2017-12-20T02:52:19.033Z,7.3
2017-12-20T02:52:59.596Z,7.25
2017-12-20T02:53:40.172Z,7.23
2017-12-20T02:54:20.790Z,7.27
2017-12-20T02:55:01.371Z,7.31
2017-12-20T02:55:41.913Z,7.28
2017-12-20T02:56:22.476Z,7.3
2017-12-20T02:57:02.976Z,7.28
2017-12-20T02:57:43.562Z,7.31
2017-12-20T02:58:24.080Z,7.28
2017-12-20T02:59:04.586Z,7.25
2017-12-20T02:59:45.212Z,7.16
2017-12-20T03:00:25.748Z,7.07
2017-12-20T03:01:06.286Z,7.09
2017-12-20T03:01:46.772Z,7.12
2017-12-20T03:02:27.355Z,7.09
2017-12-20T03:03:07.851Z,6.97
2017-12-20T03:03:48.406Z,7.02
2017-12-20T03:04:28.946Z,7.07
2017-12-20T03:05:09.455Z,7.05
2017-12-20T03:05:50.000Z,7.12
2017-12-20T03:06:30.533Z,7.1
2017-12-20T03:07:11.037Z,7.15
2017-12-20T03:07:51.552Z,7.06
2017-12-20T03:08:32.103Z,7.07
2017-12-20T03:09:12.716Z,7.15
2017-12-20T03:09:53.207Z,7.21
2017-12-20T03:10:33.765Z,7.17
2017-12-20T03:11:14.295Z,7.17
2017-12-20T03:11:54.824Z,7.2
2017-12-20T03:12:35.398Z,7.09
2017-12-20T03:13:15.936Z,7.09
2017-12-20T03:13:56.465Z,7.15
2017-12-20T03:14:36.995Z,7.1
2017-12-20T03:15:17.486Z,7.23
2017-12-20T03:15:58.061Z,7.15
2017-12-20T03:16:38.595Z,7.23
2017-12-20T03:17:19.111Z,7.15
2017-12-20T03:17:59.629Z,7.21
2017-12-20T03:18:40.173Z,7.15
2017-12-20T03:19:20.759Z,7.1
2017-12-20T03:20:01.275Z,7.21
2017-12-20T03:20:41.799Z,7.15
2017-12-20T03:21:22.368Z,7.15
2017-12-20T03:22:02.923Z,7.15
2017-12-20T03:22:43.484Z,7.15
2017-12-20T03:23:24.011Z,7.27
2017-12-20T03:24:04.554Z,7.24
2017-12-20T03:24:45.074Z,7.3
2017-12-20T03:25:25.658Z,7.23
2017-12-20T03:26:06.202Z,7.3
2017-12-20T03:26:46.735Z,7.3
2017-12-20T03:27:27.271Z,7.28
2017-12-20T03:28:07.819Z,7.23
2017-12-20T03:28:48.354Z,7.3
2017-12-20T03:29:28.859Z,7.3
2017-12-20T03:30:09.393Z,7.28
2017-12-20T03:30:49.948Z,7.21
2017-12-20T03:31:30.473Z,7.17
2017-12-20T03:32:11.008Z,7.15
2017-12-20T03:32:51.498Z,7.15
2017-12-20T03:33:32.049Z,7.25
2017-12-20T03:34:12.631Z,7.17
2017-12-20T03:34:53.189Z,7.12
2017-12-20T03:35:33.722Z,7.13
2017-12-20T03:36:14.227Z,7.15
2017-12-20T03:36:54.796Z,7.16
2017-12-20T03:37:35.354Z,7.1
2017-12-20T03:38:15.931Z,7.17
2017-12-20T03:38:56.410Z,7.09
2017-12-20T03:39:36.939Z,7.09
2017-12-20T03:40:17.504Z,7.03
2017-12-20T03:40:58.150Z,7.03
2017-12-20T03:41:38.665Z,7.02
2017-12-20T03:42:19.210Z,6.98
2017-12-20T03:42:59.818Z,7.07
2017-12-20T03:43:40.306Z,7.07
2017-12-20T03:44:20.869Z,7.03
2017-12-20T03:45:01.406Z,7.06
2017-12-20T03:45:41.983Z,7.07
2017-12-20T03:46:22.527Z,7.12
2017-12-20T03:47:03.042Z,6.97
2017-12-20T03:47:43.573Z,6.99
2017-12-20T03:48:24.184Z,6.92
2017-12-20T03:49:04.709Z,6.98
2017-12-20T03:49:45.294Z,6.97
2017-12-20T03:50:25.814Z,7.05
2017-12-20T03:51:06.409Z,7.15
2017-12-20T03:51:46.965Z,6.99
2017-12-20T03:52:27.494Z,6.99
2017-12-20T03:53:07.994Z,7.06
2017-12-20T03:53:48.534Z,7.07
2017-12-20T03:54:29.125Z,6.88
2017-12-20T03:55:09.698Z,6.94
2017-12-20T03:55:50.211Z,6.91
2017-12-20T03:56:30.773Z,6.95
2017-12-20T03:57:11.256Z,6.99
2017-12-20T03:57:51.872Z,7.02
2017-12-20T03:58:32.448Z,6.91
2017-12-20T03:59:12.967Z,6.92
2017-12-20T03:59:53.509Z,6.92
2017-12-20T04:00:34.054Z,6.95
2017-12-20T04:01:14.584Z,6.94
2017-12-20T04:01:55.165Z,6.97
2017-12-20T04:02:35.700Z,6.89
2017-12-20T04:03:16.209Z,7.03
2017-12-20T04:03:56.794Z,6.87
2017-12-20T04:04:39.960Z,6.88
2017-12-20T04:05:20.619Z,7.07
2017-12-20T04:06:01.133Z,7.03
2017-12-20T04:06:41.683Z,6.92
2017-12-20T04:07:22.208Z,6.91
2017-12-20T04:08:02.773Z,6.97
2017-12-20T04:08:43.332Z,6.99
2017-12-20T04:09:23.922Z,7.12
2017-12-20T04:10:04.429Z,7.12
2017-12-20T04:10:44.960Z,6.94
2017-12-20T04:11:25.548Z,6.87
2017-12-20T04:12:06.672Z,6.8
2017-12-20T04:12:46.605Z,6.81
2017-12-20T04:13:27.169Z,6.81
2017-12-20T04:14:07.705Z,6.79
2017-12-20T04:14:48.242Z,6.87
2017-12-20T04:15:28.820Z,7.03
2017-12-20T04:16:09.370Z,6.99
2017-12-20T04:16:49.921Z,7.09
2017-12-20T04:17:30.465Z,6.98
2017-12-20T04:18:11.008Z,6.74
2017-12-20T04:18:51.558Z,6.87
2017-12-20T04:19:32.127Z,6.89
2017-12-20T04:20:14.338Z,6.97
2017-12-20T04:20:54.884Z,6.84
2017-12-20T04:21:35.437Z,7.02
2017-12-20T04:22:16.091Z,6.91
2017-12-20T04:22:56.581Z,7.03
2017-12-20T04:23:37.123Z,6.99
2017-12-20T04:24:17.669Z,7.02
2017-12-20T04:24:58.202Z,6.98
2017-12-20T04:25:38.716Z,6.98
2017-12-20T04:26:19.276Z,6.92
2017-12-20T04:26:59.845Z,6.94
2017-12-20T04:27:40.398Z,6.97
2017-12-20T04:28:20.926Z,7.05
2017-12-20T04:29:01.484Z,7.03
2017-12-20T04:29:42.002Z,6.91
2017-12-20T04:30:22.567Z,6.91
2017-12-20T04:31:03.101Z,6.99
2017-12-20T04:31:43.654Z,7.02
2017-12-20T04:32:24.203Z,7.05
2017-12-20T04:33:04.756Z,6.94
2017-12-20T04:33:45.289Z,7.13
2017-12-20T04:34:25.825Z,7.03
2017-12-20T04:35:06.369Z,6.99
2017-12-20T04:35:46.884Z,7.12
2017-12-20T04:36:27.530Z,7.1
2017-12-20T04:37:07.989Z,7.03
2017-12-20T04:37:48.562Z,7.15
2017-12-20T04:38:29.091Z,7.03
2017-12-20T04:39:09.671Z,7.2
2017-12-20T04:39:50.195Z,7.15
2017-12-20T04:40:30.744Z,7.3
2017-12-20T04:41:11.312Z,7.23
2017-12-20T04:41:51.846Z,7.25
2017-12-20T04:42:32.367Z,7.21
2017-12-20T04:43:12.874Z,7.15
2017-12-20T04:43:53.399Z,7.09
2017-12-20T04:44:33.974Z,7.13
2017-12-20T04:45:14.527Z,7.16
2017-12-20T04:45:55.096Z,7.17
2017-12-20T04:46:35.628Z,7.21
2017-12-20T04:47:16.209Z,7.1
2017-12-20T04:47:56.689Z,7.15
2017-12-20T04:48:37.226Z,7.31
2017-12-20T04:49:17.790Z,7.25
2017-12-20T04:49:58.383Z,7.17
2017-12-20T04:50:38.870Z,7.16
2017-12-20T04:51:19.429Z,7.12
2017-12-20T04:51:59.980Z,7.12
2017-12-20T04:52:40.576Z,7.09
2017-12-20T04:53:21.108Z,7.03
2017-12-20T04:54:01.660Z,7.09
2017-12-20T04:54:42.190Z,7.16
2017-12-20T04:55:22.756Z,7.25
2017-12-20T04:56:03.325Z,7.21
2017-12-20T04:56:43.887Z,7.24
2017-12-20T04:57:24.398Z,7.21
2017-12-20T04:58:04.953Z,7.15
2017-12-20T04:58:45.507Z,7.16
2017-12-20T04:59:26.079Z,7.25
2017-12-20T05:00:06.727Z,7.07
2017-12-20T05:00:47.308Z,7.07
2017-12-20T05:01:27.841Z,7.09
2017-12-20T05:02:08.369Z,7.21
2017-12-20T05:02:48.888Z,7.28
2017-12-20T05:03:29.435Z,7.23
2017-12-20T05:04:09.998Z,7.1
2017-12-20T05:04:50.496Z,7.25
2017-12-20T05:05:31.078Z,7.21
2017-12-20T05:06:11.628Z,7.24
2017-12-20T05:06:52.205Z,7.3
2017-12-20T05:07:32.743Z,7.28
2017-12-20T05:08:13.311Z,7.35
2017-12-20T05:08:53.961Z,7.31
2017-12-20T05:09:34.498Z,7.37
2017-12-20T05:10:15.005Z,7.31
2017-12-20T05:10:55.612Z,7.28
2017-12-20T05:11:36.108Z,7.43
2017-12-20T05:12:16.657Z,7.24
2017-12-20T05:12:57.157Z,7.25
2017-12-20T05:13:37.727Z,7.25
2017-12-20T05:14:18.314Z,7.15
2017-12-20T05:14:58.788Z,7.24
2017-12-20T05:15:39.390Z,7.27
2017-12-20T05:16:19.930Z,7.13
2017-12-20T05:17:00.456Z,7.2
2017-12-20T05:17:40.996Z,7.25
2017-12-20T05:18:21.544Z,7.25
2017-12-20T05:19:02.203Z,7.24
2017-12-20T05:19:42.772Z,7.07
2017-12-20T05:20:23.334Z,7.06
2017-12-20T05:21:03.925Z,7.07
2017-12-20T05:21:44.414Z,7.09
2017-12-20T05:22:24.922Z,7.09
2017-12-20T05:23:05.720Z,7.12
2017-12-20T05:23:46.238Z,7.13
2017-12-20T05:24:26.828Z,7.17
2017-12-20T05:25:07.314Z,7.31
2017-12-20T05:25:47.889Z,7.31
2017-12-20T05:26:28.497Z,7.25
2017-12-20T05:27:09.050Z,7.32
2017-12-20T05:27:49.637Z,7.43
2017-12-20T05:28:30.087Z,7.34
2017-12-20T05:29:10.647Z,7.3
2017-12-20T05:29:51.142Z,7.4
2017-12-20T05:30:31.752Z,7.34
2017-12-20T05:31:12.252Z,7.43
2017-12-20T05:31:52.816Z,7.32
2017-12-20T05:32:33.436Z,7.16
2017-12-20T05:33:13.984Z,7.28
2017-12-20T05:33:54.534Z,7.2
2017-12-20T05:34:35.132Z,7.3
2017-12-20T05:35:15.705Z,7.32
2017-12-20T05:35:56.281Z,7.27
2017-12-20T05:36:36.837Z,7.27
2017-12-20T05:37:17.396Z,7.2
2017-12-20T05:37:57.948Z,7.28
2017-12-20T05:38:38.587Z,7.17
2017-12-20T05:39:19.181Z,7.28
2017-12-20T05:39:59.696Z,7.31
2017-12-20T05:40:40.240Z,7.32
2017-12-20T05:41:20.796Z,7.25
2017-12-20T05:42:01.395Z,7.1
2017-12-20T05:42:41.935Z,7.27
2017-12-20T05:43:22.484Z,7.28
2017-12-20T05:44:03.044Z,7.34
2017-12-20T05:44:43.566Z,7.24
2017-12-20T05:45:24.093Z,7.2
2017-12-20T05:46:04.660Z,7.28
2017-12-20T05:46:45.249Z,7.21
2017-12-20T05:47:25.762Z,7.24
2017-12-20T05:48:06.321Z,7.12
2017-12-20T05:48:46.854Z,7.21
2017-12-20T05:49:27.471Z,7.32
2017-12-20T05:50:07.946Z,7.31
2017-12-20T05:50:48.507Z,7.32
2017-12-20T05:51:29.010Z,7.25
2017-12-20T05:52:09.573Z,7.28
2017-12-20T05:52:50.088Z,7.27
2017-12-20T05:53:30.613Z,7.31
2017-12-20T05:54:11.174Z,7.24
2017-12-20T05:54:51.795Z,7.27
2017-12-20T05:55:32.272Z,7.34
2017-12-20T05:56:12.836Z,7.3
2017-12-20T05:56:53.417Z,7.31
2017-12-20T05:57:33.974Z,7.25
2017-12-20T05:58:14.583Z,7.28
2017-12-20T05:58:55.100Z,7.31
2017-12-20T05:59:35.676Z,7.25
2017-12-20T06:00:16.405Z,7.23
2017-12-20T06:00:56.964Z,7.31
2017-12-20T06:01:37.496Z,7.2
2017-12-20T06:02:18.084Z,7.21
2017-12-20T06:02:58.606Z,7.24
2017-12-20T06:03:39.168Z,7.31
2017-12-20T06:04:19.722Z,7.32
2017-12-20T06:05:00.266Z,7.24
2017-12-20T06:05:40.795Z,7.25
2017-12-20T06:06:21.369Z,7.1
2017-12-20T06:07:01.900Z,7.13
2017-12-20T06:07:42.390Z,7.07
2017-12-20T06:08:22.934Z,7.12
2017-12-20T06:09:03.491Z,7.13
2017-12-20T06:09:44.015Z,7.2
2017-12-20T06:10:24.591Z,7.27
2017-12-20T06:11:05.106Z,7.15
2017-12-20T06:11:45.713Z,7.2
2017-12-20T06:12:26.209Z,7.09
2017-12-20T06:13:06.775Z,7.03
2017-12-20T06:13:47.292Z,7.09
2017-12-20T06:14:27.926Z,7.12
2017-12-20T06:15:08.468Z,7.16
2017-12-20T06:15:49.032Z,7.2
2017-12-20T06:16:29.583Z,7.23
2017-12-20T06:17:10.145Z,7.12
2017-12-20T06:17:51.898Z,7.21
2017-12-20T06:18:32.444Z,7.21
2017-12-20T06:19:13.204Z,7.09
2017-12-20T06:19:54.744Z,7.15
2017-12-20T06:20:35.290Z,7.15
2017-12-20T06:21:15.879Z,7.1
2017-12-20T06:22:04.827Z,7.17
2017-12-20T06:22:46.407Z,7.25
2017-12-20T06:23:27.024Z,7.27
2017-12-20T06:24:07.583Z,7.23
2017-12-20T06:24:50.799Z,7.27
2017-12-20T06:40:31.125Z,7.25
2017-12-20T06:41:20.944Z,7.15
2017-12-20T06:48:03.989Z,7.4
2017-12-20T06:49:01.904Z,7.31
2017-12-20T06:50:51.096Z,7.4
2017-12-20T07:26:30.344Z,8.56
2017-12-20T07:36:45.681Z,8.47
2017-12-20T08:06:15.946Z,8.02
2017-12-20T08:06:57.680Z,8.62
2017-12-20T08:07:38.365Z,8.48
2017-12-20T08:08:22.349Z,8.12
2017-12-20T08:09:02.767Z,8.02
2017-12-20T08:09:43.329Z,7.9
2017-12-20T08:33:32.323Z,8.37
2017-12-20T08:34:22.971Z,8.11
2017-12-20T08:35:11.451Z,8.19
2017-12-20T08:36:02.112Z,8.12
2017-12-20T08:36:52.462Z,8.19
2017-12-20T08:41:59.788Z,8.5
2017-12-20T08:42:54.178Z,8.43
2017-12-20T08:47:24.122Z,8.29
2017-12-20T09:34:34.601Z,8.45
2017-12-20T09:35:26.556Z,8.81
2017-12-20T10:06:07.628Z,9.01
2017-12-20T10:06:56.460Z,8.95
2017-12-20T10:07:45.057Z,9.05
2017-12-20T10:08:34.543Z,9.02
2017-12-20T10:09:25.038Z,9.02
2017-12-20T10:14:35.688Z,8.84
2017-12-20T10:15:31.510Z,8.87
2017-12-20T10:16:17.141Z,8.99
2017-12-20T10:17:05.691Z,9.01
2017-12-20T10:17:55.554Z,9.15
2017-12-20T10:18:44.426Z,9.1
2017-12-20T10:19:26.074Z,9.15
2017-12-20T10:20:06.581Z,9.4
2017-12-20T10:20:47.333Z,9.58
2017-12-20T10:21:27.912Z,9.58
2017-12-20T10:23:32.363Z,9.54
2017-12-20T10:24:12.934Z,9.26
2017-12-20T10:24:55.439Z,9.32
2017-12-20T10:25:36.042Z,9.36
2017-12-20T10:26:16.587Z,9.24
2017-12-20T10:26:57.057Z,9.28
2017-12-20T10:27:37.769Z,9.29
2017-12-20T10:41:42.819Z,9.51
2017-12-20T10:42:31.788Z,9.47
2017-12-20T10:43:19.499Z,9.5
2017-12-20T10:44:09.368Z,9.39
2017-12-20T10:44:58.399Z,9.5
2017-12-20T10:45:47.880Z,9.57
2017-12-20T10:49:13.098Z,9.58
2017-12-20T10:50:02.691Z,9.65
2017-12-20T10:50:51.633Z,9.65
2017-12-20T10:51:40.584Z,9.65
2017-12-20T10:52:31.241Z,9.5
2017-12-20T10:53:21.278Z,9.46
2017-12-20T10:54:16.629Z,9.61
2017-12-20T10:55:07.118Z,9.84
2017-12-20T10:55:56.576Z,9.84
2017-12-20T10:56:45.081Z,9.99
2017-12-20T10:57:34.113Z,9.94
2017-12-20T10:58:22.236Z,9.75
2017-12-20T10:59:28.273Z,9.72
2017-12-20T11:00:13.217Z,9.75
2017-12-20T11:00:53.768Z,9.6
2017-12-20T11:01:34.481Z,9.74
2017-12-20T11:02:15.241Z,9.74
2017-12-20T11:02:55.788Z,9.68
2017-12-20T11:03:36.752Z,9.74
2017-12-20T11:04:17.189Z,9.76
2017-12-20T11:04:57.964Z,9.71
2017-12-20T11:05:38.428Z,9.74
2017-12-20T11:06:19.244Z,9.75
2017-12-20T11:06:59.819Z,9.69
2017-12-20T11:07:40.363Z,9.74
2017-12-20T11:08:20.838Z,9.58
2017-12-20T11:09:01.421Z,9.56
2017-12-20T11:09:42.054Z,9.58
2017-12-20T11:10:22.708Z,9.57
2017-12-20T11:11:03.199Z,9.53
2017-12-20T11:11:43.859Z,9.4
2017-12-20T11:12:24.310Z,9.38
2017-12-20T11:13:04.879Z,9.33
2017-12-20T11:13:45.380Z,9.4
2017-12-20T11:14:25.983Z,9.53
2017-12-20T11:26:30.941Z,9.65
2017-12-20T11:27:19.727Z,9.76
2017-12-20T11:28:08.404Z,9.58
2017-12-20T11:28:57.287Z,9.56
2017-12-20T11:29:47.048Z,9.61
2017-12-20T11:30:36.608Z,9.65
2017-12-20T11:31:25.949Z,9.61
2017-12-20T11:32:14.380Z,9.6
2017-12-20T11:33:02.984Z,9.6
2017-12-20T11:33:52.132Z,9.65
2017-12-20T11:34:41.430Z,9.64
2017-12-20T11:35:29.391Z,9.61
2017-12-20T11:36:16.979Z,9.68
2017-12-20T11:38:08.751Z,9.76
2017-12-20T11:38:58.187Z,9.51
2017-12-20T11:39:47.384Z,9.5
2017-12-20T11:40:35.951Z,9.5
2017-12-20T11:41:24.263Z,9.33
2017-12-20T11:42:13.167Z,9.33
2017-12-20T11:43:01.183Z,9.38
2017-12-20T11:43:50.571Z,9.28
2017-12-20T11:44:39.052Z,9.05
2017-12-20T11:45:27.427Z,9.17
2017-12-20T11:46:16.363Z,9.42
2017-12-20T11:47:05.079Z,9.48
2017-12-20T11:47:53.185Z,9.54
2017-12-20T11:48:42.151Z,9.51
2017-12-20T11:49:30.746Z,9.54
2017-12-20T11:50:19.541Z,9.43
2017-12-20T11:51:08.008Z,9.39
2017-12-20T11:51:56.919Z,9.38
2017-12-20T11:52:38.261Z,9.48
2017-12-20T11:53:18.983Z,9.54
2017-12-20T11:53:59.573Z,9.54
2017-12-20T11:54:40.043Z,9.53
2017-12-20T11:55:20.564Z,9.47
2017-12-20T11:56:01.140Z,9.47
2017-12-20T11:56:41.644Z,9.43
2017-12-20T11:57:22.226Z,9.57
2017-12-20T11:58:02.776Z,9.48
2017-12-20T11:58:43.271Z,9.5
2017-12-20T11:59:23.965Z,9.51
2017-12-20T12:00:04.635Z,9.57
2017-12-20T12:00:45.217Z,9.43
2017-12-20T12:01:25.780Z,9.56
2017-12-20T12:02:06.277Z,9.42
2017-12-20T12:02:46.924Z,9.32
2017-12-20T12:03:27.398Z,9.39
2017-12-20T12:04:08.063Z,9.39
2017-12-20T12:04:48.705Z,9.38
2017-12-20T12:05:29.235Z,9.38
2017-12-20T12:06:09.790Z,9.38
2017-12-20T12:06:50.343Z,9.43
2017-12-20T12:07:30.888Z,9.39
2017-12-20T12:08:11.434Z,9.5
2017-12-20T12:08:55.501Z,9.47
2017-12-20T12:09:35.993Z,9.56
2017-12-20T12:10:16.591Z,9.51
2017-12-20T12:10:57.182Z,9.57
2017-12-20T12:11:37.716Z,9.53
2017-12-20T12:12:18.255Z,9.58
2017-12-20T12:12:58.776Z,9.51
2017-12-20T12:13:39.337Z,9.57
2017-12-20T12:14:19.906Z,9.71
2017-12-20T12:15:00.438Z,9.72
2017-12-20T12:15:41.003Z,9.6
2017-12-20T12:16:21.645Z,9.64
2017-12-20T12:17:02.206Z,9.64
2017-12-20T12:17:42.828Z,9.6
2017-12-20T12:18:23.415Z,9.64
2017-12-20T12:19:03.979Z,9.65
2017-12-20T12:19:44.605Z,9.66
2017-12-20T12:20:25.077Z,9.64
2017-12-20T12:21:05.617Z,9.57
2017-12-20T12:21:46.124Z,9.6
2017-12-20T12:22:26.659Z,9.5
2017-12-20T12:23:07.247Z,9.68
2017-12-20T12:23:48.071Z,9.72
2017-12-20T12:24:28.585Z,9.65
2017-12-20T12:25:09.203Z,9.71
2017-12-20T12:25:49.678Z,9.64
2017-12-20T12:26:30.154Z,9.61
2017-12-20T12:27:10.799Z,9.56
2017-12-20T12:27:51.414Z,9.56
2017-12-20T12:28:31.896Z,9.58
2017-12-20T12:29:12.444Z,9.56
2017-12-20T12:29:53.013Z,9.57
2017-12-20T12:30:33.539Z,9.39
2017-12-20T12:31:14.064Z,9.4
2017-12-20T12:31:54.661Z,9.38
2017-12-20T12:32:35.232Z,9.4
2017-12-20T12:33:15.751Z,9.24
2017-12-20T12:33:56.488Z,9.26
2017-12-20T12:34:37.019Z,9.32
2017-12-20T12:35:17.547Z,9.39
2017-12-20T12:35:58.112Z,9.29
2017-12-20T12:36:38.680Z,9.4
2017-12-20T12:37:19.182Z,9.38
2017-12-20T12:37:59.727Z,9.4
2017-12-20T12:38:40.582Z,9.39
2017-12-20T12:39:21.138Z,9.53
2017-12-20T12:40:01.781Z,9.56
2017-12-20T12:40:42.566Z,9.47
2017-12-20T12:41:23.157Z,9.53
2017-12-20T12:42:03.774Z,9.66
2017-12-20T12:42:44.512Z,9.74
2017-12-20T12:43:25.154Z,9.65
2017-12-20T12:44:05.694Z,9.58
2017-12-20T12:44:46.219Z,9.61
2017-12-20T12:45:26.808Z,9.69
2017-12-20T12:46:07.349Z,9.71
2017-12-20T12:46:47.940Z,9.58
2017-12-20T12:47:28.590Z,9.64
2017-12-20T12:48:09.132Z,9.72
2017-12-20T12:48:49.656Z,9.65
2017-12-20T12:49:30.171Z,9.76
2017-12-20T12:50:10.725Z,9.74
2017-12-20T12:50:51.516Z,9.68
2017-12-20T12:51:31.855Z,9.68
2017-12-20T12:52:12.349Z,9.71
2017-12-20T12:52:52.927Z,9.71
2017-12-20T12:53:33.516Z,9.6
2017-12-20T12:54:14.089Z,9.58
2017-12-20T12:54:54.797Z,9.4
2017-12-20T12:55:35.469Z,9.42
2017-12-20T12:56:15.959Z,9.53
2017-12-20T12:56:56.635Z,9.54
2017-12-20T12:57:37.190Z,9.54
2017-12-20T12:58:17.757Z,9.43
2017-12-20T12:58:58.299Z,9.38
2017-12-20T12:59:38.821Z,9.47
2017-12-20T13:00:19.445Z,9.54
2017-12-20T13:00:59.988Z,9.57
2017-12-20T13:09:32.252Z,9.43
2017-12-20T13:10:20.368Z,9.39
2017-12-20T13:11:08.774Z,9.4
2017-12-20T13:11:57.391Z,9.54
2017-12-20T13:12:45.992Z,9.4
2017-12-20T13:13:34.837Z,9.56
2017-12-20T13:14:23.313Z,9.58
2017-12-20T13:15:14.903Z,9.48
2017-12-20T13:16:03.758Z,9.54
2017-12-20T13:16:53.642Z,9.36
2017-12-20T13:21:06.238Z,9.57
2017-12-20T13:25:09.337Z,9.54
2017-12-20T13:25:58.834Z,9.54
2017-12-20T13:26:48.723Z,9.42
2017-12-20T13:27:37.693Z,9.51